Time;durP1;ratioP1;P1;durP2;ratioP2;P2;SDS_P1;SDS_P2;PMS_P1;PMS_P2;Temp;Humidity;BMP_temperature;BMP_pressure;BME280_temperature;BME280_humidity;BME280_pressure;Samples;Min_cycle;Max_cycle;Signal;HPM_P1;HPM_P2
2021/01/17 00:01:36;;;;;;;;;;;;;;;;;;5042799;28;19916;-86
2021/01/17 00:04:03;;;;;;;;;;;;;;;;;;5054489;28;19925;-89
2021/01/17 00:06:29;;;;;;;;;;;;;;;;;;5042539;28;19929;-88
2021/01/17 00:08:55;;;;;;;;;;;;;;;;;;5041811;28;20453;-89
2021/01/17 00:11:22;;;;;;;;;;;;;;;;;;5040615;28;19925;-91
2021/01/17 00:13:48;;;;;;;;;;;;;;;;;;5040157;28;19929;-89
2021/01/17 00:16:15;;;;;;;;;;;;;;;;;;5040532;28;19944;-90
2021/01/17 00:18:41;;;;;;;;;;;;;;;;;;5040967;28;19971;-85
2021/01/17 00:21:07;;;;;;;;;;;;;;;;;;5033960;28;19997;-85
2021/01/17 00:23:34;;;;;;;;;;;;;;;;;;5025643;28;19925;-86
2021/01/17 00:26:00;;;;;;;;;;;;;;;;;;5042164;28;19932;-85
2021/01/17 00:28:26;;;;;;;;;;;;;;;;;;5042130;28;20389;-84
2021/01/17 00:30:53;;;;;;;;;;;;;;;;;;5042484;28;19932;-86
2021/01/17 00:33:19;;;;;;;;;;;;;;;;;;5038673;28;19933;-85
2021/01/17 00:35:55;;;;;;;;;;;;;;;;;;5027657;28;19980;-86
2021/01/17 00:38:21;;;;;;;;;;;;;;;;;;5035082;28;19948;-85
2021/01/17 00:40:47;;;;;;;;;;;;;;;;;;5042204;28;19933;-84
2021/01/17 00:43:14;;;;;;;;;;;;;;;;;;5047944;28;19925;-85
2021/01/17 00:45:40;;;;;;;;;;;;;;;;;;5046921;28;19929;-84
2021/01/17 00:48:06;;;;;;;;;;;;;;;;;;5052843;28;19925;-85
2021/01/17 00:50:33;;;;;;;;;;;;;;;;;;5042906;28;19925;-83
2021/01/17 00:52:59;;;;;;;;;;;;;;;;;;5043439;28;20267;-85
2021/01/17 00:55:25;;;;;;;;;;;;;;;;;;5041592;28;19925;-86
2021/01/17 00:57:52;;;;;;;;;;;;;;;;;;5041629;28;19948;-85
2021/01/17 01:00:18;;;;;;;;;;;;;;;;;;5038487;28;20004;-85
2021/01/17 01:02:45;;;;;;;;;;;;;;;;;;5030157;28;19971;-85
2021/01/17 01:05:13;;;;;;;;;;;;;;;;;;5042005;28;19925;-86
2021/01/17 01:07:39;;;;;;;;;;;;;;;;;;5021182;28;19925;-83
2021/01/17 01:10:06;;;;;;;;;;;;;;;;;;5022703;28;19968;-83
2021/01/17 01:12:32;;;;;;;;;;;;;;;;;;5025713;28;19925;-84
2021/01/17 01:14:59;;;;;;;;;;;;;;;;;;5045214;28;19929;-83
2021/01/17 01:17:25;;;;;;;;;;;;;;;;;;5041834;28;19925;-85
2021/01/17 01:19:51;;;;;;;;;;;;;;;;;;5029951;28;19926;-83
2021/01/17 01:22:18;;;;;;;;;;;;;;;;;;5043404;28;20404;-82
2021/01/17 01:24:44;;;;;;;;;;;;;;;;;;5046731;28;19933;-84
2021/01/17 01:27:10;;;;;;;;;;;;;;;;;;5028248;28;19926;-86
2021/01/17 01:29:37;;;;;;;;;;;;;;;;;;5030175;28;20341;-87
2021/01/17 01:32:03;;;;;;;;;;;;;;;;;;5029097;28;19952;-85
2021/01/17 01:34:30;;;;;;;;;;;;;;;;;;5038712;28;19925;-85
2021/01/17 01:36:56;;;;;;;;;;;;;;;;;;5034899;28;19925;-89
2021/01/17 01:39:23;;;;;;;;;;;;;;;;;;5038501;28;19970;-86
2021/01/17 01:41:49;;;;;;;;;;;;;;;;;;5037717;28;20290;-86
2021/01/17 01:44:15;;;;;;;;;;;;;;;;;;5038265;28;19933;-86
2021/01/17 01:46:42;;;;;;;;;;;;;;;;;;5038226;28;19930;-86
2021/01/17 01:49:08;;;;;;;;;;;;;;;;;;5038343;28;20471;-86
2021/01/17 01:51:34;;;;;;;;;;;;;;;;;;5043989;28;19937;-85
2021/01/17 01:54:01;;;;;;;;;;;;;;;;;;5041583;28;19925;-82
2021/01/17 01:56:27;;;;;;;;;;;;;;;;;;5033896;28;19929;-85
2021/01/17 01:58:54;;;;;;;;;;;;;;;;;;5037205;28;19948;-86
2021/01/17 02:01:20;;;;;;;;;;;;;;;;;;5031307;28;19925;-84
2021/01/17 02:03:47;;;;;;;;;;;;;;;;;;5028007;28;20286;-84
2021/01/17 02:06:13;;;;;;;;;;;;;;;;;;5020588;28;19925;-85
2021/01/17 02:08:39;;;;;;;;;;;;;;;;;;5041800;28;19929;-85
2021/01/17 02:11:06;;;;;;;;;;;;;;;;;;5042460;28;20281;-85
2021/01/17 02:13:32;;;;;;;;;;;;;;;;;;5042141;28;19932;-85
2021/01/17 02:15:58;;;;;;;;;;;;;;;;;;5047497;28;19975;-84
2021/01/17 02:18:25;;;;;;;;;;;;;;;;;;5051259;28;19933;-84
2021/01/17 02:20:51;;;;;;;;;;;;;;;;;;5049537;28;19925;-84
2021/01/17 02:23:18;;;;;;;;;;;;;;;;;;5049615;28;19938;-84
2021/01/17 02:25:44;;;;;;;;;;;;;;;;;;5043266;28;19925;-85
2021/01/17 02:28:10;;;;;;;;;;;;;;;;;;5038412;28;20350;-84
2021/01/17 02:30:37;;;;;;;;;;;;;;;;;;5040582;28;19931;-84
2021/01/17 02:33:03;;;;;;;;;;;;;;;;;;5042183;28;19925;-84
2021/01/17 02:35:29;;;;;;;;;;;;;;;;;;5041533;28;19947;-84
2021/01/17 02:37:56;;;;;;;;;;;;;;;;;;5042315;28;19947;-87
2021/01/17 02:40:22;;;;;;;;;;;;;;;;;;5041452;28;19925;-86
2021/01/17 02:42:49;;;;;;;;;;;;;;;;;;5047591;28;19926;-84
2021/01/17 02:45:15;;;;;;;;;;;;;;;;;;5058892;28;19925;-86
2021/01/17 02:47:41;;;;;;;;;;;;;;;;;;5043404;28;19925;-86
2021/01/17 02:50:08;;;;;;;;;;;;;;;;;;5040157;28;19936;-86
2021/01/17 02:52:34;;;;;;;;;;;;;;;;;;5040856;28;19929;-86
2021/01/17 02:55:00;;;;;;;;;;;;;;;;;;5040690;28;20395;-85
2021/01/17 02:57:27;;;;;;;;;;;;;;;;;;5041178;28;19929;-86
2021/01/17 02:59:53;;;;;;;;;;;;;;;;;;5041368;28;19925;-86
2021/01/17 03:02:20;;;;;;;;;;;;;;;;;;5041922;28;20016;-84
2021/01/17 03:04:46;;;;;;;;;;;;;;;;;;5040275;28;19932;-86
2021/01/17 03:07:12;;;;;;;;;;;;;;;;;;5039749;28;20432;-85
2021/01/17 03:09:39;;;;;;;;;;;;;;;;;;5037799;28;19930;-85
2021/01/17 03:12:05;;;;;;;;;;;;;;;;;;5039535;28;19926;-85
2021/01/17 03:14:31;;;;;;;;;;;;;;;;;;5023969;28;20393;-86
2021/01/17 03:16:58;;;;;;;;;;;;;;;;;;5039534;28;19929;-86
2021/01/17 03:19:24;;;;;;;;;;;;;;;;;;5037945;28;19925;-85
2021/01/17 03:21:51;;;;;;;;;;;;;;;;;;5020258;28;19975;-86
2021/01/17 03:24:17;;;;;;;;;;;;;;;;;;5036701;28;19939;-85
2021/01/17 03:26:43;;;;;;;;;;;;;;;;;;5041328;28;20012;-86
2021/01/17 03:29:10;;;;;;;;;;;;;;;;;;5025157;28;19932;-86
2021/01/17 03:31:36;;;;;;;;;;;;;;;;;;5020511;28;19932;-86
2021/01/17 03:34:02;;;;;;;;;;;;;;;;;;5036048;28;19925;-86
2021/01/17 03:36:29;;;;;;;;;;;;;;;;;;5041829;28;19932;-86
2021/01/17 03:38:55;;;;;;;;;;;;;;;;;;5042781;28;19920;-86
2021/01/17 03:41:22;;;;;;;;;;;;;;;;;;5041729;28;19932;-84
2021/01/17 03:43:48;;;;;;;;;;;;;;;;;;5058530;28;19940;-86
2021/01/17 03:46:14;;;;;;;;;;;;;;;;;;5043882;28;19932;-85
2021/01/17 03:48:41;;;;;;;;;;;;;;;;;;5053385;28;19925;-85
2021/01/17 03:51:07;;;;;;;;;;;;;;;;;;5040657;28;19952;-86
2021/01/17 03:53:33;;;;;;;;;;;;;;;;;;5024269;28;19956;-86
2021/01/17 03:56:00;;;;;;;;;;;;;;;;;;5040988;28;19925;-86
2021/01/17 03:58:26;;;;;;;;;;;;;;;;;;5042548;28;19925;-86
2021/01/17 04:00:52;;;;;;;;;;;;;;;;;;5052853;28;19947;-85
2021/01/17 04:03:19;;;;;;;;;;;;;;;;;;5036214;28;19932;-86
2021/01/17 04:05:45;;;;;;;;;;;;;;;;;;5036050;28;20389;-86
2021/01/17 04:08:12;;;;;;;;;;;;;;;;;;5020063;28;20041;-86
2021/01/17 04:10:38;;;;;;;;;;;;;;;;;;5026148;28;20357;-86
2021/01/17 04:13:05;;;;;;;;;;;;;;;;;;5023423;28;19933;-87
2021/01/17 04:15:31;;;;;;;;;;;;;;;;;;5031842;28;19930;-86
2021/01/17 04:17:57;;;;;;;;;;;;;;;;;;5033778;28;19953;-86
2021/01/17 04:20:24;;;;;;;;;;;;;;;;;;5024641;28;19925;-87
2021/01/17 04:22:50;;;;;;;;;;;;;;;;;;5039013;28;19925;-87
2021/01/17 04:25:17;;;;;;;;;;;;;;;;;;5038688;28;19932;-86
2021/01/17 04:27:43;;;;;;;;;;;;;;;;;;5038578;28;19932;-87
2021/01/17 04:30:09;;;;;;;;;;;;;;;;;;5038144;28;20400;-87
2021/01/17 04:32:36;;;;;;;;;;;;;;;;;;5039165;28;19925;-86
2021/01/17 04:35:02;;;;;;;;;;;;;;;;;;5033701;28;19925;-87
2021/01/17 04:37:28;;;;;;;;;;;;;;;;;;5034808;28;20377;-85
2021/01/17 04:39:55;;;;;;;;;;;;;;;;;;5030087;28;19932;-83
2021/01/17 04:42:21;;;;;;;;;;;;;;;;;;5049537;28;19925;-84
2021/01/17 04:44:47;;;;;;;;;;;;;;;;;;5031163;28;19929;-85
2021/01/17 04:47:14;;;;;;;;;;;;;;;;;;5037983;28;19925;-85
2021/01/17 04:49:40;;;;;;;;;;;;;;;;;;5036580;28;19975;-85
2021/01/17 04:52:07;;;;;;;;;;;;;;;;;;5039225;28;19955;-85
2021/01/17 04:54:33;;;;;;;;;;;;;;;;;;5039661;28;19925;-85
2021/01/17 04:56:59;;;;;;;;;;;;;;;;;;5039382;28;19929;-85
2021/01/17 04:59:26;;;;;;;;;;;;;;;;;;5035093;28;19929;-86
2021/01/17 05:01:53;;;;;;;;;;;;;;;;;;5040307;28;19925;-87
2021/01/17 05:04:19;;;;;;;;;;;;;;;;;;5033932;28;19926;-87
2021/01/17 05:06:46;;;;;;;;;;;;;;;;;;5032242;28;19925;-85
2021/01/17 05:09:12;;;;;;;;;;;;;;;;;;5046056;28;19909;-84
2021/01/17 05:11:39;;;;;;;;;;;;;;;;;;5039721;28;19925;-86
2021/01/17 05:14:06;;;;;;;;;;;;;;;;;;5034629;28;19925;-86
2021/01/17 05:16:33;;;;;;;;;;;;;;;;;;5037036;28;19976;-86
2021/01/17 05:18:59;;;;;;;;;;;;;;;;;;5039686;28;19925;-86
2021/01/17 05:21:25;;;;;;;;;;;;;;;;;;5039849;28;19925;-85
2021/01/17 05:23:52;;;;;;;;;;;;;;;;;;5040466;28;19948;-86
2021/01/17 05:26:18;;;;;;;;;;;;;;;;;;5040620;28;19925;-85
2021/01/17 05:28:45;;;;;;;;;;;;;;;;;;5038920;28;19933;-86
2021/01/17 05:31:11;;;;;;;;;;;;;;;;;;5040354;28;19925;-86
2021/01/17 05:33:37;;;;;;;;;;;;;;;;;;5035885;28;19929;-86
2021/01/17 05:36:04;;;;;;;;;;;;;;;;;;5035202;28;19933;-86
2021/01/17 05:38:30;;;;;;;;;;;;;;;;;;5044656;28;19925;-86
2021/01/17 05:40:59;;;;;;;;;;;;;;;;;;5039513;28;19933;-86
2021/01/17 05:43:27;;;;;;;;;;;;;;;;;;5043468;28;19929;-84
2021/01/17 05:45:56;;;;;;;;;;;;;;;;;;5043493;28;20330;-87
2021/01/17 05:48:23;;;;;;;;;;;;;;;;;;5043791;28;19926;-86
2021/01/17 05:50:49;;;;;;;;;;;;;;;;;;5041355;28;20270;-88
2021/01/17 05:53:15;;;;;;;;;;;;;;;;;;5030663;28;19925;-88
2021/01/17 05:55:42;;;;;;;;;;;;;;;;;;5032836;28;19933;-88
2021/01/17 05:58:08;;;;;;;;;;;;;;;;;;5042144;28;19932;-88
2021/01/17 06:00:34;;;;;;;;;;;;;;;;;;5031750;28;19933;-88
2021/01/17 06:03:01;;;;;;;;;;;;;;;;;;5023106;28;19980;-84
2021/01/17 06:05:27;;;;;;;;;;;;;;;;;;5026805;28;19929;-85
2021/01/17 06:07:54;;;;;;;;;;;;;;;;;;5045644;28;20283;-84
2021/01/17 06:10:20;;;;;;;;;;;;;;;;;;5045495;28;19925;-85
2021/01/17 06:12:46;;;;;;;;;;;;;;;;;;5031773;28;19932;-86
2021/01/17 06:15:13;;;;;;;;;;;;;;;;;;5028593;28;20294;-86
2021/01/17 06:17:39;;;;;;;;;;;;;;;;;;5025459;28;19932;-87
2021/01/17 06:20:08;;;;;;;;;;;;;;;;;;5039982;28;19947;-86
2021/01/17 06:22:34;;;;;;;;;;;;;;;;;;5040367;28;20401;-86
2021/01/17 06:25:00;;;;;;;;;;;;;;;;;;5034459;28;19925;-87
2021/01/17 06:27:27;;;;;;;;;;;;;;;;;;5040801;28;19929;-86
2021/01/17 06:29:53;;;;;;;;;;;;;;;;;;5041735;28;19952;-87
2021/01/17 06:32:20;;;;;;;;;;;;;;;;;;5042271;28;19932;-86
2021/01/17 06:34:46;;;;;;;;;;;;;;;;;;5044368;28;20052;-86
2021/01/17 06:37:12;;;;;;;;;;;;;;;;;;5041737;28;19925;-86
2021/01/17 06:39:39;;;;;;;;;;;;;;;;;;5041998;28;19925;-87
2021/01/17 06:42:09;;;;;;;;;;;;;;;;;;5033648;28;20003;-88
2021/01/17 06:44:45;;;;;;;;;;;;;;;;;;5042796;28;19925;-85
2021/01/17 06:47:18;;;;;;;;;;;;;;;;;;5039782;28;19925;-86
2021/01/17 06:49:45;;;;;;;;;;;;;;;;;;5030250;28;19925;-86
2021/01/17 06:52:19;;;;;;;;;;;;;;;;;;5050310;28;20012;-85
2021/01/17 06:54:58;;;;;;;;;;;;;;;;;;5053203;28;19926;-86
2021/01/17 06:57:24;;;;;;;;;;;;;;;;;;5044194;28;19925;-86
2021/01/17 06:59:51;;;;;;;;;;;;;;;;;;5032883;28;19925;-85
2021/01/17 07:02:17;;;;;;;;;;;;;;;;;;5042727;28;19929;-85
2021/01/17 07:04:44;;;;;;;;;;;;;;;;;;5042254;28;19925;-85
2021/01/17 07:07:11;;;;;;;;;;;;;;;;;;5037631;28;19996;-85
2021/01/17 07:09:37;;;;;;;;;;;;;;;;;;5043760;28;20028;-84
2021/01/17 07:12:03;;;;;;;;;;;;;;;;;;5050446;28;19925;-84
2021/01/17 07:14:30;;;;;;;;;;;;;;;;;;5045833;28;19948;-85
2021/01/17 07:16:56;;;;;;;;;;;;;;;;;;5047507;28;19925;-83
2021/01/17 07:19:23;;;;;;;;;;;;;;;;;;5047796;28;19965;-84
2021/01/17 07:21:49;;;;;;;;;;;;;;;;;;5049344;28;19948;-84
2021/01/17 07:24:15;;;;;;;;;;;;;;;;;;5027118;28;19926;-86
2021/01/17 07:26:42;;;;;;;;;;;;;;;;;;5031017;28;20362;-86
2021/01/17 07:29:08;;;;;;;;;;;;;;;;;;5093050;23;19925;-82
2021/01/17 07:31:35;;;;;;;;;;;;;;;;;;5065349;28;19932;-80
2021/01/17 07:34:01;;;;;;;;;;;;;;;;;;5075985;28;19909;-83
2021/01/17 07:36:27;;;;;;;;;;;;;;;;;;5075487;28;19971;-84
2021/01/17 07:38:54;;;;;;;;;;;;;;;;;;5067352;28;19936;-81
2021/01/17 07:41:20;;;;;;;;;;;;;;;;;;5066936;28;20377;-82
2021/01/17 07:43:49;;;;;;;;;;;;;;;;;;5070740;28;19925;-84
2021/01/17 07:46:15;;;;;;;;;;;;;;;;;;5078736;28;19924;-81
2021/01/17 07:48:42;;;;;;;;;;;;;;;;;;5072294;28;19924;-82
2021/01/17 07:51:08;;;;;;;;;;;;;;;;;;5068221;28;19932;-83
2021/01/17 07:53:35;;;;;;;;;;;;;;;;;;5068570;28;19924;-82
2021/01/17 07:56:01;;;;;;;;;;;;;;;;;;5067426;28;19932;-82
2021/01/17 07:58:27;;;;;;;;;;;;;;;;;;5067514;28;19948;-83
2021/01/17 08:00:54;;;;;;;;;;;;;;;;;;5066479;28;19925;-82
2021/01/17 08:03:20;;;;;;;;;;;;;;;;;;5067589;28;20012;-82
2021/01/17 08:05:46;;;;;;;;;;;;;;;;;;5067016;28;19932;-83
2021/01/17 08:08:13;;;;;;;;;;;;;;;;;;5068250;28;19925;-83
2021/01/17 08:10:39;;;;;;;;;;;;;;;;;;5066796;28;19960;-83
2021/01/17 08:13:06;;;;;;;;;;;;;;;;;;5068116;28;19995;-82
2021/01/17 08:15:35;;;;;;;;;;;;;;;;;;5074314;28;19948;-82
2021/01/17 08:18:01;;;;;;;;;;;;;;;;;;5078847;28;19980;-81
2021/01/17 08:20:28;;;;;;;;;;;;;;;;;;5074787;28;19932;-83
2021/01/17 08:22:54;;;;;;;;;;;;;;;;;;5068307;28;20281;-82
2021/01/17 08:25:21;;;;;;;;;;;;;;;;;;5063932;28;19947;-83
2021/01/17 08:27:47;;;;;;;;;;;;;;;;;;5065181;28;19925;-83
2021/01/17 08:30:13;;;;;;;;;;;;;;;;;;5059393;28;20304;-83
2021/01/17 08:32:41;;;;;;;;;;;;;;;;;;5056588;28;19925;-82
2021/01/17 08:35:07;;;;;;;;;;;;;;;;;;5057920;28;20358;-82
2021/01/17 08:37:33;;;;;;;;;;;;;;;;;;5056506;28;19975;-82
2021/01/17 08:40:00;;;;;;;;;;;;;;;;;;5056918;28;19932;-82
2021/01/17 08:42:26;;;;;;;;;;;;;;;;;;5051844;28;19932;-82
2021/01/17 08:44:52;;;;;;;;;;;;;;;;;;5049332;28;20348;-82
2021/01/17 08:47:19;;;;;;;;;;;;;;;;;;5060144;28;19944;-81
2021/01/17 08:49:45;;;;;;;;;;;;;;;;;;5068708;28;19925;-81
2021/01/17 08:52:11;;;;;;;;;;;;;;;;;;5055136;28;19932;-81
2021/01/17 08:54:38;;;;;;;;;;;;;;;;;;5057051;28;20328;-81
2021/01/17 08:57:04;;;;;;;;;;;;;;;;;;5053901;28;19925;-84
2021/01/17 08:59:31;;;;;;;;;;;;;;;;;;5058050;28;19925;-84
2021/01/17 09:01:57;;;;;;;;;;;;;;;;;;5055033;28;19925;-83
2021/01/17 09:04:24;;;;;;;;;;;;;;;;;;5056718;28;19932;-83
2021/01/17 09:06:50;;;;;;;;;;;;;;;;;;5057845;28;20366;-82
2021/01/17 09:09:17;;;;;;;;;;;;;;;;;;5053778;28;19925;-83
2021/01/17 09:11:43;;;;;;;;;;;;;;;;;;5058195;28;19936;-83
2021/01/17 09:14:09;;;;;;;;;;;;;;;;;;5050721;28;20373;-82
2021/01/17 09:16:36;;;;;;;;;;;;;;;;;;5056305;28;19931;-84
2021/01/17 09:19:02;;;;;;;;;;;;;;;;;;5057230;28;19970;-83
2021/01/17 09:21:28;;;;;;;;;;;;;;;;;;5052641;28;19924;-83
2021/01/17 09:23:55;;;;;;;;;;;;;;;;;;5065886;28;19913;-81
2021/01/17 09:26:21;;;;;;;;;;;;;;;;;;5078596;28;19925;-85
2021/01/17 09:28:48;;;;;;;;;;;;;;;;;;5063329;28;19925;-84
2021/01/17 09:31:14;;;;;;;;;;;;;;;;;;5058428;28;19948;-84
2021/01/17 09:33:40;;;;;;;;;;;;;;;;;;5058616;28;19925;-85
2021/01/17 09:36:11;;;;;;;;;;;;;;;;;;5061658;28;19925;-85
2021/01/17 09:38:37;;;;;;;;;;;;;;;;;;5061000;28;19925;-85
2021/01/17 09:41:03;;;;;;;;;;;;;;;;;;5059989;28;19932;-85
2021/01/17 09:43:30;;;;;;;;;;;;;;;;;;5060051;28;20336;-86
2021/01/17 09:45:57;;;;;;;;;;;;;;;;;;5060178;28;19928;-85
2021/01/17 09:48:23;;;;;;;;;;;;;;;;;;5059759;28;19929;-85
2021/01/17 09:50:50;;;;;;;;;;;;;;;;;;5056210;28;19924;-82
2021/01/17 09:53:16;;;;;;;;;;;;;;;;;;5056458;28;19989;-84
2021/01/17 09:55:43;;;;;;;;;;;;;;;;;;5056764;28;19935;-83
2021/01/17 09:58:09;;;;;;;;;;;;;;;;;;5056051;28;19959;-84
2021/01/17 10:00:35;;;;;;;;;;;;;;;;;;5055490;28;19932;-83
2021/01/17 10:03:02;;;;;;;;;;;;;;;;;;5057026;28;19947;-86
2021/01/17 10:05:28;;;;;;;;;;;;;;;;;;5058367;28;19929;-86
2021/01/17 10:07:55;;;;;;;;;;;;;;;;;;5056546;28;19925;-85
2021/01/17 10:10:21;;;;;;;;;;;;;;;;;;5057249;28;20570;-86
2021/01/17 10:12:47;;;;;;;;;;;;;;;;;;5058985;28;19931;-86
2021/01/17 10:15:15;;;;;;;;;;;;;;;;;;5057247;28;19947;-87
2021/01/17 10:17:41;;;;;;;;;;;;;;;;;;5055819;28;19924;-85
2021/01/17 10:22:48;;;;;;;;;;;;;;;;;;5059113;28;19921;-81
2021/01/17 10:25:15;;;;;;;;;;;;;;;;;;5056340;28;19929;-84
2021/01/17 10:27:41;;;;;;;;;;;;;;;;;;5055239;28;19925;-84
2021/01/17 10:52:08;;;;;;;;;;;;;;;;;;4942429;29;20296;-86
2021/01/17 10:54:34;;;;;;;;;;;;;;;;;;4942760;29;19935;-85
2021/01/17 10:57:00;;;;;;;;;;;;;;;;;;4945333;29;19926;-86
2021/01/17 10:59:27;;;;;;;;;;;;;;;;;;4944219;29;19957;-87
2021/01/17 11:01:53;;;;;;;;;;;;;;;;;;4941690;29;20348;-86
2021/01/17 11:04:20;;;;;;;;;;;;;;;;;;4942275;29;19934;-85
2021/01/17 11:06:46;;;;;;;;;;;;;;;;;;4942657;29;19927;-85
2021/01/17 11:09:12;;;;;;;;;;;;;;;;;;4938792;29;19930;-83
2021/01/17 11:11:39;;;;;;;;;;;;;;;;;;4937891;29;20339;-82
2021/01/17 11:14:05;;;;;;;;;;;;;;;;;;4935620;29;19927;-82
2021/01/17 11:16:31;;;;;;;;;;;;;;;;;;4950979;28;19934;-81
2021/01/17 11:18:58;;;;;;;;;;;;;;;;;;4941342;29;19927;-80
2021/01/17 11:21:24;;;;;;;;;;;;;;;;;;4967545;28;19950;-83
2021/01/17 11:23:51;;;;;;;;;;;;;;;;;;4986528;28;19941;-83
2021/01/17 11:26:17;;;;;;;;;;;;;;;;;;4999732;28;19932;-84
2021/01/17 11:28:43;;;;;;;;;;;;;;;;;;5008273;28;19925;-84
2021/01/17 11:31:10;;;;;;;;;;;;;;;;;;5064402;28;19928;-84
2021/01/17 11:33:36;;;;;;;;;;;;;;;;;;5066062;28;20443;-84
2021/01/17 11:36:02;;;;;;;;;;;;;;;;;;5068415;28;19984;-86
2021/01/17 11:38:29;;;;;;;;;;;;;;;;;;5066295;28;19925;-84
2021/01/17 11:40:56;;;;;;;;;;;;;;;;;;5066076;28;19925;-88
2021/01/17 11:43:23;;;;;;;;;;;;;;;;;;5067047;28;19928;-84
2021/01/17 11:45:49;;;;;;;;;;;;;;;;;;5062212;28;19924;-87
2021/01/17 11:48:16;;;;;;;;;;;;;;;;;;5060634;28;19932;-85
2021/01/17 11:50:42;;;;;;;;;;;;;;;;;;5062396;28;20254;-86
2021/01/17 11:53:08;;;;;;;;;;;;;;;;;;5062092;28;20393;-86
2021/01/17 11:55:36;;;;;;;;;;;;;;;;;;5061362;28;21417;-85
2021/01/17 11:58:02;;;;;;;;;;;;;;;;;;5069143;28;20403;-85
2021/01/17 12:00:29;;;;;;;;;;;;;;;;;;5077349;28;20377;-85
2021/01/17 12:02:55;;;;;;;;;;;;;;;;;;5065055;28;20396;-85
2021/01/17 12:05:22;;;;;;;;;;;;;;;;;;5061078;28;20373;-86
2021/01/17 12:07:49;;;;;;;;;;;;;;;;;;5059916;28;20415;-86
2021/01/17 12:10:15;;;;;;;;;;;;;;;;;;5058884;28;20388;-85
2021/01/17 12:12:41;;;;;;;;;;;;;;;;;;5059122;28;20392;-85
2021/01/17 12:15:08;;;;;;;;;;;;;;;;;;5057855;28;20400;-85
2021/01/17 12:17:34;;;;;;;;;;;;;;;;;;5058193;28;20385;-86
2021/01/17 12:20:01;;;;;;;;;;;;;;;;;;5061628;28;20415;-87
2021/01/17 12:22:27;;;;;;;;;;;;;;;;;;5059264;28;20841;-86
2021/01/17 12:24:53;;;;;;;;;;;;;;;;;;5060052;28;20846;-86
2021/01/17 12:27:20;;;;;;;;;;;;;;;;;;5061041;28;20459;-85
2021/01/17 12:29:46;;;;;;;;;;;;;;;;;;5070605;28;20431;-84
2021/01/17 12:32:13;;;;;;;;;;;;;;;;;;5071539;28;20391;-84
2021/01/17 12:34:39;;;;;;;;;;;;;;;;;;5044342;28;20398;-86
2021/01/17 12:37:05;;;;;;;;;;;;;;;;;;5051765;28;20441;-85
2021/01/17 12:39:32;;;;;;;;;;;;;;;;;;5059602;28;20430;-88
2021/01/17 12:41:59;;;;;;;;;;;;;;;;;;5060231;28;20841;-87
2021/01/17 12:44:25;;;;;;;;;;;;;;;;;;5061617;28;20388;-85
2021/01/17 12:46:51;;;;;;;;;;;;;;;;;;5062568;28;20391;-87
2021/01/17 12:49:18;;;;;;;;;;;;;;;;;;5061256;28;20430;-87
2021/01/17 12:51:44;;;;;;;;;;;;;;;;;;5061223;28;20433;-87
2021/01/17 12:54:11;;;;;;;;;;;;;;;;;;5061934;28;20400;-87
2021/01/17 12:56:37;;;;;;;;;;;;;;;;;;5061706;28;20396;-87
2021/01/17 12:59:03;;;;;;;;;;;;;;;;;;5061592;28;20404;-87
2021/01/17 13:01:30;;;;;;;;;;;;;;;;;;5071905;28;20414;-86
2021/01/17 13:03:56;;;;;;;;;;;;;;;;;;5077858;28;20374;-85
2021/01/17 13:06:22;;;;;;;;;;;;;;;;;;5075483;28;20394;-85
2021/01/17 13:08:49;;;;;;;;;;;;;;;;;;5060451;28;20802;-88
2021/01/17 13:11:15;;;;;;;;;;;;;;;;;;5061763;28;20392;-85
2021/01/17 13:13:42;;;;;;;;;;;;;;;;;;5061825;28;20399;-86
2021/01/17 13:16:08;;;;;;;;;;;;;;;;;;5054165;28;20756;-88
2021/01/17 13:18:34;;;;;;;;;;;;;;;;;;5057716;28;20408;-87
2021/01/17 13:21:02;;;;;;;;;;;;;;;;;;5053015;28;20895;-87
2021/01/17 13:23:28;;;;;;;;;;;;;;;;;;5058736;28;20454;-87
2021/01/17 13:25:55;;;;;;;;;;;;;;;;;;5059900;28;20396;-85
2021/01/17 13:28:21;;;;;;;;;;;;;;;;;;5093803;22;20404;-84
2021/01/17 13:30:48;;;;;;;;;;;;;;;;;;5033451;28;20402;-86
2021/01/17 13:33:14;;;;;;;;;;;;;;;;;;5038040;28;20426;-85
2021/01/17 13:35:41;;;;;;;;;;;;;;;;;;5038047;28;20387;-86
2021/01/17 13:38:08;;;;;;;;;;;;;;;;;;5040180;28;20442;-86
2021/01/17 13:40:34;;;;;;;;;;;;;;;;;;5039379;28;20410;-86
2021/01/17 13:43:01;;;;;;;;;;;;;;;;;;5038435;28;20390;-84
2021/01/17 13:45:27;;;;;;;;;;;;;;;;;;5039208;28;20421;-85
2021/01/17 13:47:53;;;;;;;;;;;;;;;;;;5040163;28;20415;-86
2021/01/17 13:50:20;;;;;;;;;;;;;;;;;;5039149;28;20414;-85
2021/01/17 13:52:46;;;;;;;;;;;;;;;;;;5040267;28;20390;-86
2021/01/17 14:52:54;;;;;;;;;;;;;;;;;;5026600;28;20774;-88
2021/01/17 14:55:24;;;;;;;;;;;;;;;;;;5028201;28;20402;-84
2021/01/17 14:57:51;;;;;;;;;;;;;;;;;;5028743;28;20786;-85
2021/01/17 15:00:17;;;;;;;;;;;;;;;;;;5036103;28;20505;-83
2021/01/17 15:02:44;;;;;;;;;;;;;;;;;;5032976;28;20383;-83
2021/01/17 15:05:10;;;;;;;;;;;;;;;;;;5029884;28;20386;-83
2021/01/17 15:07:40;;;;;;;;;;;;;;;;;;5026721;28;20410;-85
2021/01/17 15:10:17;;;;;;;;;;;;;;;;;;5030202;28;20408;-86
2021/01/17 15:12:44;;;;;;;;;;;;;;;;;;5033456;28;20758;-84
2021/01/17 15:15:24;;;;;;;;;;;;;;;;;;;;;
2021/01/17 15:17:51;;;;;;;;;;;;;;;;;;5029949;28;20379;-83
2021/01/17 15:20:17;;;;;;;;;;;;;;;;;;5031919;28;20464;-84
2021/01/17 15:22:45;;;;;;;;;;;;;;;;;;5029567;28;20390;-83
2021/01/17 15:25:11;;;;;;;;;;;;;;;;;;5030321;28;20770;-83
2021/01/17 15:27:38;;;;;;;;;;;;;;;;;;5043438;28;20415;-84
2021/01/17 15:30:04;;;;;;;;;;;;;;;;;;5040961;28;20416;-82
2021/01/17 15:32:31;;;;;;;;;;;;;;;;;;5041296;28;20391;-84
2021/01/17 15:34:57;;;;;;;;;;;;;;;;;;5041177;28;20387;-82
2021/01/17 15:37:24;;;;;;;;;;;;;;;;;;5041235;28;20383;-83
2021/01/17 15:39:50;;;;;;;;;;;;;;;;;;5040959;28;20407;-82
2021/01/17 15:42:17;;;;;;;;;;;;;;;;;;5041504;28;20390;-83
2021/01/17 15:44:43;;;;;;;;;;;;;;;;;;5040319;28;20411;-83
2021/01/17 15:47:09;;;;;;;;;;;;;;;;;;5039865;28;20384;-83
2021/01/17 15:49:36;;;;;;;;;;;;;;;;;;5041023;28;20917;-82
2021/01/17 15:52:02;;;;;;;;;;;;;;;;;;5040464;28;20394;-87
2021/01/17 15:54:28;;;;;;;;;;;;;;;;;;5041450;28;20402;-85
2021/01/17 15:56:55;;;;;;;;;;;;;;;;;;5041796;28;20388;-85
2021/01/17 15:59:21;;;;;;;;;;;;;;;;;;5041003;28;20403;-85
2021/01/17 16:01:48;;;;;;;;;;;;;;;;;;5034020;28;20387;-83
2021/01/17 16:04:14;;;;;;;;;;;;;;;;;;5032414;28;20406;-83
2021/01/17 16:06:41;;;;;;;;;;;;;;;;;;5029100;28;20419;-83
2021/01/17 16:09:07;;;;;;;;;;;;;;;;;;5043204;28;20866;-83
2021/01/17 16:11:33;;;;;;;;;;;;;;;;;;5040326;28;21413;-83
2021/01/17 16:14:00;;;;;;;;;;;;;;;;;;5041440;28;20183;-83
2021/01/17 16:16:26;;;;;;;;;;;;;;;;;;5041822;28;19955;-82
2021/01/17 16:18:53;;;;;;;;;;;;;;;;;;5041302;28;19952;-83
2021/01/17 16:21:19;;;;;;;;;;;;;;;;;;5039490;28;19921;-83
2021/01/17 16:23:45;;;;;;;;;;;;;;;;;;5042155;28;19921;-83
2021/01/17 16:26:12;;;;;;;;;;;;;;;;;;5041260;28;19921;-84
2021/01/17 16:28:38;;;;;;;;;;;;;;;;;;5042025;28;19921;-83
2021/01/17 16:31:05;;;;;;;;;;;;;;;;;;5041865;28;20408;-81
2021/01/17 16:53:12;;;;;;;;;;;;;;;;;;4917727;29;20014;-83
2021/01/17 16:55:39;;;;;;;;;;;;;;;;;;4918046;29;19927;-82
2021/01/17 16:58:06;;;;;;;;;;;;;;;;;;4920850;29;19954;-82
2021/01/17 17:00:32;;;;;;;;;;;;;;;;;;4918392;29;19933;-84
2021/01/17 17:02:59;;;;;;;;;;;;;;;;;;4906641;29;19923;-83
2021/01/17 17:05:25;;;;;;;;;;;;;;;;;;4918475;29;19923;-82
2021/01/17 17:07:51;;;;;;;;;;;;;;;;;;4903546;29;19924;-82
2021/01/17 17:10:18;;;;;;;;;;;;;;;;;;4905366;29;19923;-81
2021/01/17 17:12:44;;;;;;;;;;;;;;;;;;4915769;29;19923;-82
2021/01/17 17:15:11;;;;;;;;;;;;;;;;;;4942746;28;20008;-82
2021/01/17 17:17:37;;;;;;;;;;;;;;;;;;5002064;28;19921;-82
2021/01/17 17:20:03;;;;;;;;;;;;;;;;;;5028698;28;19921;-80
2021/01/17 17:22:30;;;;;;;;;;;;;;;;;;5028045;28;19997;-82
2021/01/17 17:24:56;;;;;;;;;;;;;;;;;;5023944;28;20333;-83
2021/01/17 17:27:23;;;;;;;;;;;;;;;;;;5023329;28;19925;-81
2021/01/17 17:29:49;;;;;;;;;;;;;;;;;;5023657;28;19921;-82
2021/01/17 17:32:16;;;;;;;;;;;;;;;;;;5018871;28;19921;-87
2021/01/17 17:34:47;;;;;;;;;;;;;;;;;;5004812;28;19944;-85
2021/01/17 17:37:13;;;;;;;;;;;;;;;;;;5006450;28;19926;-83
2021/01/17 17:39:40;;;;;;;;;;;;;;;;;;5006164;28;20405;-81
2021/01/17 17:42:06;;;;;;;;;;;;;;;;;;5017025;28;19929;-81
2021/01/17 17:44:32;;;;;;;;;;;;;;;;;;5038560;28;19932;-84
2021/01/17 17:46:59;;;;;;;;;;;;;;;;;;5026011;28;20080;-84
2021/01/17 17:49:25;;;;;;;;;;;;;;;;;;5025346;28;19921;-82
2021/01/17 17:51:51;;;;;;;;;;;;;;;;;;5034018;28;19932;-84
2021/01/17 17:54:18;;;;;;;;;;;;;;;;;;5029990;28;20322;-83
2021/01/17 17:56:44;;;;;;;;;;;;;;;;;;5029192;28;19922;-83
2021/01/17 17:59:11;;;;;;;;;;;;;;;;;;5029160;28;19945;-84
2021/01/17 18:01:37;;;;;;;;;;;;;;;;;;5032280;28;20390;-84
2021/01/17 18:04:03;;;;;;;;;;;;;;;;;;5033506;28;19925;-84
2021/01/17 18:06:30;;;;;;;;;;;;;;;;;;5050578;28;19927;-83
2021/01/17 18:08:56;;;;;;;;;;;;;;;;;;5045125;28;19925;-83
2021/01/17 18:11:22;;;;;;;;;;;;;;;;;;5050079;28;19925;-83
2021/01/17 18:13:52;;;;;;;;;;;;;;;;;;5051063;28;19921;-83
2021/01/17 18:16:18;;;;;;;;;;;;;;;;;;5043557;28;19921;-84
2021/01/17 18:18:45;;;;;;;;;;;;;;;;;;5042916;28;19943;-83
2021/01/17 18:21:11;;;;;;;;;;;;;;;;;;5042266;28;20282;-83
2021/01/17 18:23:37;;;;;;;;;;;;;;;;;;5042851;28;19928;-82